Hlavní strana
METAR-TAF:

METAR-TAF

Letiště :

Letiště Žilina

Žilina, Slovensko

zeměpisná šířka: 49-14N, zeměpisná délka: 018-36-49E, výška: 312 m

Aktuální stav počasí

Zpráva byla vytvořena před 37 minutami, v 19:00 UTC
Západojihozápadní vítr 9 kt
Teplota -3°C
Vlhkost vzduchu 86%
Tlak 1025 hPa
Viditelnost 10 km a více
Polojasno ve výšce 1500 ft

METAR: LZZI 051900Z 25009KT 9999 SCT015 M03/M05 Q1025

Čas: 20:37 (19:37 UTC)

Předpověď počasí

Zpráva byla vytvořena před 1 hodinou a 38 minutami, v 17:59 UTC
Předpověď platná od 05 v 18 UTC do 06 v 03 UTC
Západní vítr 12 kt
Viditelnost: 7000 m
Polojasno ve výšce 1200 ft
Změna
od 05 v 19 UTC do 05 v 21 UTC
Západní vítr 4 kt
Dočasný
od 05 v 18 UTC do 05 v 21 UTC
Viditelnost: 4000 m
Oblačno až skoro zataženo ve výšce 900 ft
kouřmo
Dočasný
od 05 v 21 UTC do 06 v 03 UTC
Viditelnost: 2200 m
Zataženo ve výšce 500 ft
kouřmo

TAF: LZZI 051759Z 0518/0603 26012KT 7000 SCT012 BECMG 0519/0521 26004KT TEMPO 0518/0521 4000 BR BKN009 TEMPO 0521/0603 2200 BR OVC005

Stav a předpovědi počasí z více než 4 000 letišť (zprávy METAR a TAF).

Červené a žluté tečky na mapě představují dostupné meteorologické stanice.

Když kurzor umístíte na tečku, zobrazí se název stanice.

Pak kliknutím zobrazíte stav a předpověď počasí.

Chcete-li změnit mapu, kliknutím na zelené tlačítko se znaménkem +mapu přiblížíte, kliknutím na zelené tlačítko se znaménkem – mapu oddálíte a kliknutím na zelené šipky přejdete na sousední mapy.


METAR-TAF: